Time;durP1;ratioP1;P1;durP2;ratioP2;P2;SDS_P1;SDS_P2;PMS_P1;PMS_P2;Temp;Humidity;BMP_temperature;BMP_pressure;BME280_temperature;BME280_humidity;BME280_pressure;Samples;Min_cycle;Max_cycle;Signal;HPM_P1;HPM_P2
2023/05/30 00:00:25;;;;;;;4.43;1.17;;;13.90;62.30;;;;;;5032767;28;20432;-65
2023/05/30 00:02:51;;;;;;;1.77;1.13;;;13.90;62.60;;;;;;5025072;28;20382;-64
2023/05/30 00:05:17;;;;;;;1.75;0.60;;;13.80;62.70;;;;;;5029121;28;20040;-64
2023/05/30 00:07:43;;;;;;;3.08;0.98;;;13.80;62.80;;;;;;5033425;28;20485;-68
2023/05/30 00:10:09;;;;;;;6.15;0.52;;;13.80;62.90;;;;;;5037572;28;20037;-68
2023/05/30 00:12:35;;;;;;;0.82;0.75;;;13.80;63.00;;;;;;5031544;28;20076;-68
2023/05/30 00:15:02;;;;;;;2.72;0.70;;;13.80;63.10;;;;;;5030530;28;20117;-68
2023/05/30 00:17:28;;;;;;;1.40;0.88;;;13.70;63.00;;;;;;5025721;28;20477;-65
2023/05/30 00:19:54;;;;;;;2.40;0.80;;;13.70;63.10;;;;;;5027401;28;20029;-64
2023/05/30 00:22:23;;;;;;;1.13;0.90;;;13.70;63.20;;;;;;5030606;28;20034;-64
2023/05/30 00:24:51;;;;;;;2.92;0.93;;;13.60;63.40;;;;;;5025181;28;20063;-64
2023/05/30 00:27:17;;;;;;;2.75;0.90;;;13.60;63.70;;;;;;5030687;28;20038;-64
2023/05/30 00:29:45;;;;;;;1.65;1.08;;;13.60;63.90;;;;;;5025007;28;20037;-64
2023/05/30 00:32:12;;;;;;;5.32;1.13;;;13.50;64.10;;;;;;5030378;28;20433;-65
2023/05/30 00:34:37;;;;;;;3.65;0.63;;;13.50;64.10;;;;;;5029949;28;20497;-64
2023/05/30 00:37:05;;;;;;;1.42;0.80;;;13.50;64.30;;;;;;5025042;28;20032;-64
2023/05/30 00:39:31;;;;;;;0.93;0.77;;;13.50;64.20;;;;;;5028243;28;20530;-64
2023/05/30 00:41:57;;;;;;;3.85;0.73;;;13.40;64.30;;;;;;5013102;28;20026;-65
2023/05/30 00:44:22;;;;;;;2.47;0.68;;;13.40;64.50;;;;;;5027228;28;20029;-65
2023/05/30 00:46:50;;;;;;;1.27;0.93;;;13.40;64.60;;;;;;5023888;28;20068;-65
2023/05/30 00:49:17;;;;;;;1.25;0.85;;;13.30;64.60;;;;;;5028716;28;20029;-65
2023/05/30 00:51:43;;;;;;;1.42;0.60;;;13.30;64.80;;;;;;5028165;28;20439;-65
2023/05/30 00:54:09;;;;;;;1.30;0.57;;;13.30;64.90;;;;;;5029066;28;20033;-65
2023/05/30 00:56:36;;;;;;;6.25;1.30;;;13.30;65.00;;;;;;5012826;28;20073;-68
2023/05/30 00:59:05;;;;;;;3.42;1.10;;;13.30;64.90;;;;;;5019057;28;20033;-68
2023/05/30 01:01:32;;;;;;;1.17;0.90;;;13.30;65.00;;;;;;5029326;28;20091;-68
2023/05/30 01:03:59;;;;;;;1.35;1.20;;;13.20;65.20;;;;;;5029101;28;20030;-68
2023/05/30 01:06:29;;;;;;;0.93;0.50;;;13.20;65.30;;;;;;5027323;28;20087;-69
2023/05/30 01:08:59;;;;;;;2.80;0.70;;;13.20;65.40;;;;;;5029250;28;20090;-69
2023/05/30 01:11:53;;;;;;;1.92;0.52;;;13.20;65.50;;;;;;5022566;28;20029;-68
2023/05/30 01:14:33;;;;;;;1.33;0.70;;;13.20;65.30;;;;;;5018886;28;20494;-68
2023/05/30 01:17:13;;;;;;;3.13;1.50;;;13.10;65.50;;;;;;5029870;28;20546;-68
2023/05/30 01:20:07;;;;;;;1.85;0.70;;;13.10;65.60;;;;;;5022099;28;20029;-65
2023/05/30 01:23:02;;;;;;;1.55;0.85;;;13.10;65.60;;;;;;5028470;28;20555;-65
2023/05/30 01:26:06;;;;;;;6.40;1.35;;;13.00;65.70;;;;;;5027786;28;20103;-65
2023/05/30 01:28:34;;;;;;;3.20;1.13;;;13.00;65.90;;;;;;5022021;28;20030;-68
2023/05/30 01:31:01;;;;;;;2.80;0.90;;;12.90;66.10;;;;;;5055135;28;20049;-68
2023/05/30 01:33:29;;;;;;;6.22;0.80;;;12.90;66.10;;;;;;5028235;28;20071;-66
2023/05/30 01:35:55;;;;;;;3.28;0.70;;;12.90;66.20;;;;;;5028843;28;20030;-65
2023/05/30 01:38:21;;;;;;;5.25;1.10;;;12.90;66.20;;;;;;5021410;28;20075;-65
2023/05/30 01:40:53;;;;;;;5.15;1.52;;;12.90;66.20;;;;;;5029844;28;20065;-65
2023/05/30 01:43:38;;;;;;;;;;;12.90;66.30;;;;;;5030272;28;20068;-65
2023/05/30 01:46:30;;;;;;;15.15;1.10;;;12.80;66.50;;;;;;5027373;28;19916;-68
2023/05/30 01:48:59;;;;;;;4.20;2.28;;;12.70;66.70;;;;;;5022088;28;20038;-68
2023/05/30 01:51:36;;;;;;;3.42;0.85;;;12.70;66.90;;;;;;5027457;28;20032;-68
2023/05/30 01:54:04;;;;;;;1.52;0.90;;;12.70;66.90;;;;;;5036416;28;20029;-68
2023/05/30 01:56:32;;;;;;;1.73;1.23;;;12.70;67.00;;;;;;5030294;28;20117;-68
2023/05/30 01:58:59;;;;;;;2.10;1.00;;;12.70;66.90;;;;;;5030690;28;20116;-68
2023/05/30 02:01:28;;;;;;;2.28;1.10;;;12.80;67.00;;;;;;5027329;28;20037;-68
2023/05/30 02:03:54;;;;;;;6.70;1.35;;;12.80;67.00;;;;;;5027877;28;20045;-68
2023/05/30 02:06:21;;;;;;;4.47;0.98;;;12.90;67.20;;;;;;5027565;28;20029;-68
2023/05/30 02:08:47;;;;;;;5.32;1.30;;;12.90;67.20;;;;;;5028072;28;20029;-68
2023/05/30 02:11:13;;;;;;;9.02;1.30;;;12.90;67.40;;;;;;5031657;28;20412;-68
2023/05/30 02:13:38;;;;;;;6.47;1.55;;;13.00;67.40;;;;;;5028084;28;20527;-73
2023/05/30 02:16:05;;;;;;;1.75;0.98;;;13.00;67.20;;;;;;5025120;28;20040;-70
2023/05/30 02:18:31;;;;;;;3.00;1.08;;;13.00;67.40;;;;;;5022535;28;20029;-70
2023/05/30 02:20:56;;;;;;;4.47;0.80;;;13.00;67.30;;;;;;5020530;28;20068;-70
2023/05/30 02:23:23;;;;;;;1.08;0.93;;;13.00;67.40;;;;;;5029615;28;20057;-69
2023/05/30 02:25:49;;;;;;;11.90;1.45;;;13.00;67.40;;;;;;5024981;28;20036;-68
2023/05/30 02:28:14;;;;;;;5.72;1.60;;;13.10;67.50;;;;;;5030334;28;20053;-68
2023/05/30 02:30:40;;;;;;;2.05;1.20;;;13.10;67.50;;;;;;5024348;28;20084;-68
2023/05/30 02:33:06;;;;;;;4.05;1.20;;;13.20;67.70;;;;;;5027466;28;20396;-68
2023/05/30 02:35:31;;;;;;;5.80;1.33;;;13.20;67.50;;;;;;5024311;28;20042;-65
2023/05/30 02:37:57;;;;;;;2.05;1.48;;;13.20;67.60;;;;;;5011677;28;20034;-65
2023/05/30 02:40:23;;;;;;;1.20;0.95;;;13.20;67.60;;;;;;5027051;28;20112;-65
2023/05/30 02:42:49;;;;;;;3.05;1.02;;;13.20;67.70;;;;;;5032229;28;20076;-68
2023/05/30 02:45:15;;;;;;;1.95;0.65;;;13.20;68.30;;;;;;5029519;28;20034;-65
2023/05/30 02:47:40;;;;;;;1.80;1.05;;;13.20;67.60;;;;;;5027704;28;20040;-65
2023/05/30 02:50:07;;;;;;;4.57;1.13;;;13.20;67.50;;;;;;5017792;28;20041;-66
2023/05/30 02:52:33;;;;;;;3.75;1.30;;;13.30;67.70;;;;;;5026078;28;20108;-65
2023/05/30 02:54:58;;;;;;;5.10;1.48;;;13.30;67.70;;;;;;5023065;28;20469;-68
2023/05/30 02:57:24;;;;;;;1.85;1.08;;;13.30;67.80;;;;;;5020538;28;20397;-68
2023/05/30 02:59:51;;;;;;;1.73;0.95;;;13.30;67.80;;;;;;5012028;28;20125;-68
2023/05/30 03:02:16;;;;;;;1.33;1.10;;;13.30;67.70;;;;;;5028884;28;20036;-69
2023/05/30 03:04:46;;;;;;;2.00;0.88;;;13.30;67.80;;;;;;5025189;28;20034;-68
2023/05/30 03:07:12;;;;;;;2.17;1.30;;;13.30;67.60;;;;;;5024306;28;20511;-68
2023/05/30 03:09:40;;;;;;;1.40;0.90;;;13.30;67.80;;;;;;5023349;28;20131;-68
2023/05/30 03:12:06;;;;;;;2.42;1.27;;;13.30;67.90;;;;;;5028670;28;20404;-68
2023/05/30 03:14:33;;;;;;;2.15;1.40;;;13.40;67.90;;;;;;5026623;28;20022;-65
2023/05/30 03:16:58;;;;;;;1.50;0.85;;;13.40;68.50;;;;;;5026014;28;20033;-65
2023/05/30 03:19:24;;;;;;;1.17;0.85;;;13.30;67.90;;;;;;5025096;28;20033;-64
2023/05/30 03:21:51;;;;;;;3.22;1.00;;;13.40;67.90;;;;;;5027082;28;20033;-66
2023/05/30 03:24:17;;;;;;;3.75;1.15;;;13.40;67.90;;;;;;5027684;28;20374;-64
2023/05/30 03:26:42;;;;;;;1.30;0.93;;;13.40;67.90;;;;;;5026574;28;20044;-64
2023/05/30 03:29:08;;;;;;;0.88;0.85;;;13.40;68.00;;;;;;5023734;28;20037;-67
2023/05/30 03:31:35;;;;;;;3.50;1.23;;;13.40;68.00;;;;;;5024563;28;20056;-68
2023/05/30 03:34:01;;;;;;;3.45;1.48;;;13.40;68.00;;;;;;5028430;28;20389;-64
2023/05/30 03:36:27;;;;;;;5.20;1.30;;;13.40;67.90;;;;;;5027985;28;20091;-64
2023/05/30 03:38:54;;;;;;;2.70;0.90;;;13.50;67.90;;;;;;5031322;28;20029;-64
2023/05/30 03:41:20;;;;;;;2.40;1.50;;;13.40;67.90;;;;;;5028931;28;20033;-65
2023/05/30 03:43:46;;;;;;;2.00;1.10;;;13.40;68.00;;;;;;5029261;28;20034;-64
2023/05/30 03:46:15;;;;;;;1.10;0.63;;;13.50;68.00;;;;;;5025461;28;20030;-64
2023/05/30 03:48:42;;;;;;;1.50;0.90;;;13.50;68.00;;;;;;5025767;28;20485;-68
2023/05/30 03:51:08;;;;;;;3.85;1.33;;;13.50;68.00;;;;;;5031762;28;20549;-68
2023/05/30 03:53:33;;;;;;;2.00;1.10;;;13.50;67.90;;;;;;5028695;28;20113;-68
2023/05/30 03:55:59;;;;;;;1.63;1.38;;;13.60;67.80;;;;;;5029831;28;20079;-68
2023/05/30 03:58:25;;;;;;;0.80;0.80;;;13.60;67.70;;;;;;5035037;28;20029;-64
2023/05/30 04:00:50;;;;;;;1.50;1.35;;;13.60;67.80;;;;;;5030293;28;20037;-64
2023/05/30 04:03:19;;;;;;;1.85;1.15;;;13.60;68.00;;;;;;5031271;28;20385;-64
2023/05/30 04:05:48;;;;;;;2.80;0.70;;;13.60;68.00;;;;;;5030262;28;20029;-68
2023/05/30 04:08:14;;;;;;;3.00;1.05;;;13.50;68.00;;;;;;5031270;28;20041;-68
2023/05/30 04:10:41;;;;;;;1.73;1.15;;;13.50;67.90;;;;;;5030539;28;20022;-67
2023/05/30 04:13:06;;;;;;;1.48;1.15;;;13.50;67.90;;;;;;5033301;28;20087;-67
2023/05/30 04:15:33;;;;;;;1.20;0.95;;;13.60;67.90;;;;;;5011341;28;20037;-67
2023/05/30 04:18:00;;;;;;;3.25;1.17;;;13.60;67.70;;;;;;5022342;28;20056;-68
2023/05/30 04:20:26;;;;;;;0.80;0.77;;;13.60;67.50;;;;;;5022939;28;20029;-68
2023/05/30 04:22:51;;;;;;;0.85;0.75;;;13.70;67.50;;;;;;5029794;28;20025;-68
2023/05/30 04:25:18;;;;;;;3.53;1.30;;;13.70;67.50;;;;;;5028914;28;20029;-64
2023/05/30 04:27:49;;;;;;;4.72;1.40;;;13.70;67.30;;;;;;5038890;28;20041;-64
2023/05/30 04:30:16;;;;;;;1.58;0.73;;;13.70;67.20;;;;;;5011259;28;20041;-64
2023/05/30 04:32:42;;;;;;;2.85;1.05;;;13.70;67.30;;;;;;5030819;28;20025;-65
2023/05/30 04:35:08;;;;;;;1.13;0.85;;;13.70;67.30;;;;;;5026301;28;20037;-64
2023/05/30 04:37:38;;;;;;;1.52;1.10;;;13.80;67.30;;;;;;5029684;28;20381;-64
2023/05/30 04:40:12;;;;;;;2.67;0.90;;;13.80;67.20;;;;;;5031162;28;20036;-68
2023/05/30 04:42:39;;;;;;;4.45;1.42;;;13.80;67.20;;;;;;5028683;28;20567;-69
2023/05/30 04:45:05;;;;;;;1.65;1.33;;;13.80;67.30;;;;;;5028937;28;20028;-68
2023/05/30 04:47:31;;;;;;;2.30;1.08;;;13.80;67.10;;;;;;5052514;28;20034;-68
2023/05/30 04:50:00;;;;;;;4.25;0.90;;;13.80;67.20;;;;;;5025954;28;20030;-68
2023/05/30 04:52:26;;;;;;;1.45;0.90;;;13.80;67.00;;;;;;5039865;28;20486;-68
2023/05/30 04:54:52;;;;;;;2.38;1.10;;;13.80;67.00;;;;;;5031830;28;20037;-68
2023/05/30 04:57:19;;;;;;;1.58;1.17;;;13.80;66.80;;;;;;5028068;28;20022;-68
2023/05/30 04:59:45;;;;;;;1.15;0.80;;;13.90;66.70;;;;;;5027678;28;20013;-68
2023/05/30 05:02:11;;;;;;;4.90;1.05;;;13.90;66.50;;;;;;5028034;28;20040;-65
2023/05/30 05:04:37;;;;;;;1.58;1.08;;;13.90;66.50;;;;;;5030786;28;20033;-65
2023/05/30 05:07:03;;;;;;;1.38;0.85;;;13.90;66.60;;;;;;5030631;28;20022;-65
2023/05/30 05:09:29;;;;;;;1.15;0.73;;;14.00;66.50;;;;;;5031056;28;20542;-68
2023/05/30 05:11:56;;;;;;;2.35;0.95;;;14.00;66.40;;;;;;5028045;28;20040;-70
2023/05/30 05:14:22;;;;;;;1.60;1.25;;;14.00;66.40;;;;;;5029532;28;20034;-69
2023/05/30 05:16:48;;;;;;;2.72;1.20;;;14.00;66.40;;;;;;5028764;28;20418;-65
2023/05/30 05:19:14;;;;;;;2.25;0.82;;;14.00;66.30;;;;;;5030635;28;20365;-66
2023/05/30 05:21:39;;;;;;;0.77;0.77;;;14.10;66.20;;;;;;5028291;28;20052;-65
2023/05/30 05:24:09;;;;;;;3.33;0.73;;;14.10;66.10;;;;;;5024433;28;21524;-65
2023/05/30 05:26:35;;;;;;;0.95;0.75;;;14.10;66.20;;;;;;5024170;28;20017;-66
2023/05/30 05:29:01;;;;;;;1.33;1.08;;;14.10;66.10;;;;;;5028812;28;20048;-65
2023/05/30 05:31:27;;;;;;;1.05;0.88;;;14.10;65.90;;;;;;5028936;28;20102;-70
2023/05/30 05:33:52;;;;;;;1.45;0.93;;;14.10;65.80;;;;;;5024626;28;20025;-69
2023/05/30 05:36:19;;;;;;;1.90;1.30;;;14.10;65.90;;;;;;5031928;28;20380;-69
2023/05/30 05:38:44;;;;;;;2.58;1.02;;;14.10;65.70;;;;;;5022941;28;20037;-70
2023/05/30 05:41:10;;;;;;;2.75;1.27;;;14.10;65.70;;;;;;5027434;28;20021;-65
2023/05/30 05:43:36;;;;;;;1.83;1.25;;;14.10;65.70;;;;;;5028259;28;20114;-66
2023/05/30 05:46:02;;;;;;;3.13;1.55;;;14.20;65.60;;;;;;5028776;28;20088;-66
2023/05/30 05:48:28;;;;;;;1.15;0.90;;;14.20;65.50;;;;;;5023907;28;20041;-65
2023/05/30 05:50:54;;;;;;;2.47;1.38;;;14.20;65.50;;;;;;5033905;28;20040;-65
2023/05/30 05:53:20;;;;;;;1.42;1.17;;;14.20;65.50;;;;;;5037128;28;20025;-65
2023/05/30 05:55:45;;;;;;;1.40;0.90;;;14.20;65.40;;;;;;5035309;28;20028;-65
2023/05/30 05:58:12;;;;;;;1.05;0.88;;;14.30;65.20;;;;;;5028030;28;20379;-66
2023/05/30 06:00:38;;;;;;;3.35;1.23;;;14.30;65.10;;;;;;5026389;28;20030;-65
2023/05/30 06:03:03;;;;;;;1.77;1.33;;;14.40;65.20;;;;;;5029322;28;20034;-70
2023/05/30 06:05:29;;;;;;;2.15;1.00;;;14.40;65.20;;;;;;5030543;28;20041;-69
2023/05/30 06:07:57;;;;;;;3.05;0.88;;;14.50;65.10;;;;;;5026281;28;20532;-69
2023/05/30 06:10:26;;;;;;;1.13;0.90;;;14.60;64.90;;;;;;5032363;28;20390;-69
2023/05/30 06:12:52;;;;;;;1.95;0.95;;;14.70;64.70;;;;;;5033095;28;20064;-69
2023/05/30 06:15:18;;;;;;;5.82;1.48;;;14.70;64.50;;;;;;5027202;28;20480;-69
2023/05/30 06:17:43;;;;;;;2.40;1.55;;;14.80;64.50;;;;;;5025553;28;20036;-69
2023/05/30 06:20:09;;;;;;;1.50;0.80;;;14.80;64.50;;;;;;5018502;28;20504;-69
2023/05/30 06:22:35;;;;;;;4.07;1.40;;;14.80;64.50;;;;;;5027948;28;20069;-69
2023/05/30 06:25:01;;;;;;;5.68;1.73;;;14.80;64.40;;;;;;5024088;28;20084;-69
2023/05/30 06:27:27;;;;;;;1.02;0.75;;;14.80;64.30;;;;;;5023669;28;20076;-69
2023/05/30 06:29:53;;;;;;;5.47;0.90;;;14.80;64.30;;;;;;5022354;28;20034;-69
2023/05/30 06:32:19;;;;;;;1.10;1.00;;;14.90;64.20;;;;;;5019441;28;20034;-69
2023/05/30 06:34:48;;;;;;;1.15;0.73;;;14.90;64.10;;;;;;5027437;28;20033;-69
2023/05/30 06:37:14;;;;;;;2.78;1.00;;;14.90;64.00;;;;;;5030345;28;20084;-69
2023/05/30 06:39:40;;;;;;;1.50;0.88;;;14.90;64.00;;;;;;5026864;28;20083;-69
2023/05/30 06:42:10;;;;;;;3.35;1.23;;;14.90;63.90;;;;;;5026229;28;20034;-69
2023/05/30 06:44:36;;;;;;;3.13;1.38;;;15.00;63.80;;;;;;5028373;28;20488;-69
2023/05/30 06:47:02;;;;;;;1.90;0.80;;;15.10;63.80;;;;;;5017556;28;20041;-65
2023/05/30 06:49:29;;;;;;;1.85;1.15;;;15.00;63.60;;;;;;5026366;28;20037;-66
2023/05/30 06:51:54;;;;;;;2.88;0.90;;;15.00;63.50;;;;;;5019062;28;20116;-66
2023/05/30 06:54:20;;;;;;;3.38;1.20;;;15.10;63.40;;;;;;5032034;28;20116;-66
2023/05/30 06:56:47;;;;;;;1.55;1.05;;;15.10;63.40;;;;;;5020705;28;20112;-68
2023/05/30 06:59:12;;;;;;;0.95;0.82;;;15.20;63.30;;;;;;5029464;28;20095;-65
2023/05/30 07:01:38;;;;;;;1.35;0.82;;;15.20;63.20;;;;;;5022042;28;20053;-66
2023/05/30 07:04:04;;;;;;;2.50;1.13;;;15.30;63.10;;;;;;5028407;28;20064;-68
2023/05/30 07:06:29;;;;;;;1.70;1.15;;;15.30;63.00;;;;;;5021523;28;20034;-68
2023/05/30 07:08:55;;;;;;;1.63;0.85;;;15.30;62.80;;;;;;5026260;28;20083;-68
2023/05/30 07:11:22;;;;;;;1.60;0.77;;;15.40;62.80;;;;;;5028122;28;20032;-68
2023/05/30 07:13:47;;;;;;;2.05;0.65;;;15.50;62.60;;;;;;5028968;28;20018;-67
2023/05/30 07:16:13;;;;;;;1.73;1.15;;;15.50;62.40;;;;;;5023183;28;20088;-68
2023/05/30 07:18:39;;;;;;;1.58;1.25;;;15.60;62.20;;;;;;5025324;28;20017;-69
2023/05/30 07:21:07;;;;;;;1.27;1.15;;;15.60;62.00;;;;;;5026122;28;20242;-70
2023/05/30 07:23:34;;;;;;;2.58;1.02;;;15.70;62.10;;;;;;5024332;28;20045;-67
2023/05/30 07:26:00;;;;;;;2.47;1.02;;;15.80;61.80;;;;;;5027478;28;20065;-68
2023/05/30 07:28:25;;;;;;;1.52;1.38;;;15.80;61.50;;;;;;5023089;28;20480;-65
2023/05/30 07:30:51;;;;;;;2.30;1.00;;;15.90;61.40;;;;;;5023576;28;20069;-66
2023/05/30 07:33:17;;;;;;;1.90;0.70;;;15.90;61.40;;;;;;5024258;28;20080;-67
2023/05/30 07:35:42;;;;;;;1.90;0.90;;;15.90;61.30;;;;;;5023004;28;20057;-67
2023/05/30 07:38:08;;;;;;;1.13;1.02;;;16.10;61.20;;;;;;5056265;28;20029;-71
2023/05/30 07:40:34;;;;;;;3.53;1.25;;;16.30;60.90;;;;;;5031033;28;20033;-71
2023/05/30 07:43:00;;;;;;;1.15;0.73;;;16.50;60.70;;;;;;5030284;28;20431;-70
2023/05/30 07:45:25;;;;;;;4.07;1.23;;;16.60;60.50;;;;;;5039683;28;20037;-70
2023/05/30 07:47:51;;;;;;;1.58;0.75;;;16.80;60.20;;;;;;5028167;28;20099;-70
2023/05/30 07:50:17;;;;;;;3.55;1.42;;;16.90;60.00;;;;;;5025571;28;20025;-70
2023/05/30 07:52:43;;;;;;;5.03;1.20;;;17.10;59.70;;;;;;5030014;28;20032;-71
2023/05/30 07:55:08;;;;;;;2.08;1.08;;;17.20;59.50;;;;;;5023330;28;20096;-67
2023/05/30 07:57:34;;;;;;;1.17;1.08;;;17.30;59.20;;;;;;5027068;28;20045;-67
2023/05/30 08:00:00;;;;;;;5.93;1.33;;;17.30;59.20;;;;;;5026054;28;20092;-66
2023/05/30 08:02:26;;;;;;;1.92;1.33;;;17.40;59.00;;;;;;5027891;28;20029;-67
2023/05/30 08:04:53;;;;;;;5.45;1.13;;;17.40;59.00;;;;;;5028359;28;20383;-67
2023/05/30 08:07:19;;;;;;;1.80;1.00;;;17.40;58.90;;;;;;5030326;28;20034;-66
2023/05/30 08:09:45;;;;;;;3.90;0.82;;;17.60;58.80;;;;;;5028786;28;20034;-71
2023/05/30 08:12:20;;;;;;;1.38;0.85;;;17.80;58.50;;;;;;5024532;28;20046;-67
2023/05/30 08:14:47;;;;;;;2.55;1.75;;;17.80;57.90;;;;;;5022601;28;20026;-70
2023/05/30 08:17:15;;;;;;;3.33;1.00;;;17.80;57.40;;;;;;5019632;28;20319;-72
2023/05/30 08:19:42;;;;;;;1.25;0.90;;;17.70;57.40;;;;;;5021026;28;20025;-70
2023/05/30 08:22:10;;;;;;;8.65;1.58;;;17.60;57.70;;;;;;5027521;28;20061;-69
2023/05/30 08:24:36;;;;;;;1.65;0.98;;;17.60;57.80;;;;;;5031161;28;20497;-69
2023/05/30 08:27:03;;;;;;;5.13;1.25;;;17.50;57.90;;;;;;5030376;28;20099;-68
2023/05/30 08:29:30;;;;;;;3.00;0.90;;;17.50;58.00;;;;;;5030861;28;20072;-65
2023/05/30 08:31:56;;;;;;;6.55;1.10;;;17.50;58.10;;;;;;5026468;28;20415;-69
2023/05/30 08:34:24;;;;;;;1.52;0.88;;;17.60;58.10;;;;;;5029654;28;20030;-68
2023/05/30 08:36:53;;;;;;;1.98;0.90;;;17.70;57.90;;;;;;5029092;28;20117;-67
2023/05/30 08:39:19;;;;;;;1.98;1.35;;;17.90;57.60;;;;;;5037367;28;20112;-69
2023/05/30 08:41:45;;;;;;;0.95;0.85;;;18.10;57.10;;;;;;5030379;28;20164;-68
2023/05/30 08:44:11;;;;;;;2.30;1.00;;;18.20;56.90;;;;;;5035002;28;20029;-68
2023/05/30 08:46:42;;;;;;;1.48;1.15;;;18.30;56.60;;;;;;5025738;28;20440;-72
2023/05/30 08:49:16;;;;;;;2.45;1.20;;;18.30;56.60;;;;;;5026157;28;20460;-73
2023/05/30 08:51:43;;;;;;;1.88;1.17;;;18.50;56.60;;;;;;5017901;28;20033;-73
2023/05/30 08:54:22;;;;;;;1.00;0.73;;;18.70;56.30;;;;;;5035347;28;20025;-73
2023/05/30 08:57:01;;;;;;;4.53;1.63;;;18.80;56.00;;;;;;5027230;28;20072;-73
2023/05/30 08:59:28;;;;;;;0.90;0.85;;;18.90;55.70;;;;;;5028488;28;20100;-73
2023/05/30 09:01:56;;;;;;;2.15;1.00;;;19.00;55.50;;;;;;5028760;28;20563;-73
2023/05/30 09:04:23;;;;;;;3.25;1.23;;;19.10;55.60;;;;;;5033057;28;20029;-73
2023/05/30 09:06:50;;;;;;;2.58;1.00;;;19.00;55.10;;;;;;5026857;28;20100;-73
2023/05/30 09:09:18;;;;;;;2.65;1.40;;;18.90;55.20;;;;;;5030294;28;20037;-73
2023/05/30 09:11:43;;;;;;;2.33;1.23;;;18.80;55.40;;;;;;5032211;28;20041;-73
2023/05/30 09:14:09;;;;;;;3.75;1.40;;;18.90;55.50;;;;;;5031112;28;20088;-73
2023/05/30 09:16:36;;;;;;;1.95;1.42;;;19.00;55.10;;;;;;5030029;28;20025;-73
2023/05/30 09:19:02;;;;;;;3.40;1.33;;;19.00;55.00;;;;;;5032984;28;20406;-70
2023/05/30 09:21:30;;;;;;;1.48;0.90;;;19.00;54.90;;;;;;5025747;28;20455;-70
2023/05/30 09:24:01;;;;;;;0.65;0.65;;;18.90;55.00;;;;;;5027363;28;20137;-70
2023/05/30 09:26:27;;;;;;;3.58;1.02;;;18.90;55.30;;;;;;5026393;28;20541;-69
2023/05/30 09:28:53;;;;;;;1.63;0.82;;;19.00;55.30;;;;;;5054227;28;20089;-70
2023/05/30 09:31:21;;;;;;;4.05;1.00;;;19.20;55.10;;;;;;5013600;28;20025;-70
2023/05/30 09:33:51;;;;;;;1.67;1.17;;;19.40;54.80;;;;;;5025030;28;20021;-70
2023/05/30 09:36:21;;;;;;;3.78;1.25;;;19.60;54.60;;;;;;5030971;28;20127;-69
2023/05/30 09:38:56;;;;;;;6.18;1.45;;;19.70;54.20;;;;;;5033985;28;20021;-70
2023/05/30 09:41:27;;;;;;;1.20;1.08;;;19.80;53.80;;;;;;5029721;28;20610;-69
2023/05/30 09:43:54;;;;;;;2.20;1.23;;;19.90;53.70;;;;;;5033165;28;20064;-67
2023/05/30 09:46:21;;;;;;;2.05;0.75;;;19.90;53.40;;;;;;5025175;28;20067;-69
2023/05/30 09:48:48;;;;;;;2.15;1.50;;;20.00;53.40;;;;;;5025413;28;20384;-69
2023/05/30 09:51:15;;;;;;;2.47;1.20;;;20.10;53.10;;;;;;5042266;28;20033;-69
2023/05/30 09:53:55;;;;;;;3.17;1.25;;;20.20;52.90;;;;;;5024203;28;20018;-69
2023/05/30 09:56:28;;;;;;;2.55;1.10;;;20.30;52.50;;;;;;5024979;28;20022;-70
2023/05/30 09:58:57;;;;;;;1.42;0.98;;;20.40;52.20;;;;;;5009332;28;20033;-70
2023/05/30 10:01:23;;;;;;;1.67;1.05;;;20.50;52.40;;;;;;5028250;28;20116;-70
2023/05/30 10:03:49;;;;;;;1.67;1.27;;;20.60;52.40;;;;;;5025467;28;20113;-70
2023/05/30 10:06:15;;;;;;;1.95;1.10;;;20.70;51.90;;;;;;5024074;28;20420;-70
2023/05/30 10:08:48;;;;;;;3.05;1.40;;;20.70;51.80;;;;;;5028742;28;20108;-71
2023/05/30 10:11:14;;;;;;;2.80;1.20;;;20.80;51.60;;;;;;5024559;28;20068;-70
2023/05/30 10:13:41;;;;;;;6.20;1.77;;;20.90;51.50;;;;;;5021345;28;20060;-70
2023/05/30 10:16:11;;;;;;;1.58;1.08;;;21.00;51.40;;;;;;5020236;28;20123;-69
2023/05/30 10:18:42;;;;;;;1.40;1.10;;;21.10;51.30;;;;;;5027743;28;20416;-70
2023/05/30 10:21:11;;;;;;;2.65;1.13;;;21.30;51.10;;;;;;5026748;28;20044;-70
2023/05/30 10:23:39;;;;;;;6.75;1.38;;;21.30;50.40;;;;;;5027138;28;20527;-70
2023/05/30 10:26:07;;;;;;;2.88;0.95;;;21.40;49.80;;;;;;5024106;28;20025;-70
2023/05/30 10:28:36;;;;;;;2.00;0.95;;;21.30;49.90;;;;;;5021197;28;20077;-69
2023/05/30 10:31:04;;;;;;;1.90;0.70;;;21.30;49.90;;;;;;5025085;28;20124;-69
2023/05/30 10:33:36;;;;;;;7.90;1.65;;;21.50;50.10;;;;;;5029584;28;20029;-71
2023/05/30 10:36:02;;;;;;;3.97;0.63;;;21.60;49.90;;;;;;5032065;28;20496;-70
2023/05/30 10:38:31;;;;;;;4.60;1.92;;;21.70;49.40;;;;;;5025244;28;20036;-70
2023/05/30 10:41:07;;;;;;;5.15;1.02;;;21.80;48.50;;;;;;5053108;28;20384;-70
2023/05/30 10:43:38;;;;;;;2.20;1.35;;;21.80;48.70;;;;;;5034987;28;20071;-70
2023/05/30 10:46:18;;;;;;;3.55;1.80;;;21.90;48.20;;;;;;5022523;28;20036;-70
2023/05/30 10:48:58;;;;;;;1.75;0.82;;;21.80;48.00;;;;;;5021324;28;20021;-73
2023/05/30 10:51:24;;;;;;;1.83;1.20;;;21.90;48.50;;;;;;5019795;28;20049;-73
2023/05/30 10:53:50;;;;;;;2.70;1.23;;;22.10;48.30;;;;;;5022314;28;20030;-74
2023/05/30 10:56:34;;;;;;;5.65;1.52;;;22.20;47.80;;;;;;5008544;28;20400;-73
2023/05/30 10:59:14;;;;;;;2.55;0.98;;;22.30;47.90;;;;;;5023802;28;20035;-70
2023/05/30 11:01:40;;;;;;;0.82;0.60;;;22.40;48.00;;;;;;5018625;28;20040;-69
2023/05/30 11:04:11;;;;;;;1.98;0.90;;;22.60;48.00;;;;;;5022205;28;20112;-70
2023/05/30 11:06:46;;;;;;;0.68;0.68;;;22.80;47.80;;;;;;5023261;28;20083;-73
2023/05/30 11:09:14;;;;;;;2.22;1.10;;;23.00;47.90;;;;;;5023959;28;20033;-69
2023/05/30 11:11:55;;;;;;;1.42;0.90;;;23.20;47.30;;;;;;5026641;28;20030;-73
2023/05/30 11:14:28;;;;;;;1.77;0.82;;;23.30;46.80;;;;;;5026523;28;20451;-70
2023/05/30 11:17:01;;;;;;;4.00;0.88;;;23.40;46.80;;;;;;5023068;28;20056;-69
2023/05/30 11:19:33;;;;;;;0.70;0.70;;;23.30;46.50;;;;;;5023898;28;20064;-69
2023/05/30 11:22:00;;;;;;;2.08;1.08;;;23.30;46.60;;;;;;5018650;28;20083;-70
2023/05/30 11:24:27;;;;;;;2.20;1.45;;;23.40;46.70;;;;;;5020793;28;20041;-72
2023/05/30 11:27:15;;;;;;;2.67;1.23;;;23.50;46.50;;;;;;5018542;28;20038;-73
2023/05/30 11:29:43;;;;;;;1.40;1.23;;;23.60;46.20;;;;;;5024182;28;20033;-73
2023/05/30 11:32:10;;;;;;;4.70;0.73;;;23.70;46.00;;;;;;5025517;28;20392;-73
2023/05/30 11:34:36;;;;;;;1.15;0.98;;;23.70;45.70;;;;;;5025541;28;20033;-70
2023/05/30 11:37:03;;;;;;;1.85;1.02;;;23.80;46.00;;;;;;5026720;28;20040;-70
2023/05/30 11:39:36;;;;;;;3.35;0.98;;;23.90;45.80;;;;;;5021738;28;20029;-70
2023/05/30 11:42:07;;;;;;;3.60;0.90;;;24.00;45.70;;;;;;5022430;28;20033;-73
2023/05/30 11:44:33;;;;;;;2.97;1.37;;;24.10;45.30;;;;;;5023820;28;20121;-70
2023/05/30 11:47:01;;;;;;;1.25;1.10;;;24.20;45.90;;;;;;5023036;28;20320;-70
2023/05/30 11:49:27;;;;;;;1.65;1.15;;;24.30;45.30;;;;;;5029345;28;20046;-70
2023/05/30 11:51:53;;;;;;;2.40;1.00;;;24.30;44.90;;;;;;5023947;28;20037;-71
2023/05/30 11:54:20;;;;;;;1.50;1.00;;;24.30;44.80;;;;;;5023827;28;20036;-70
2023/05/30 11:56:47;;;;;;;4.90;1.30;;;24.40;43.90;;;;;;5025068;28;20040;-73
2023/05/30 11:59:20;;;;;;;3.90;1.05;;;24.20;43.80;;;;;;5023823;28;20496;-72
2023/05/30 12:01:53;;;;;;;1.17;0.70;;;24.10;44.60;;;;;;5028368;28;20025;-70
2023/05/30 12:04:30;;;;;;;3.67;1.20;;;24.10;45.00;;;;;;5028637;28;20519;-70
2023/05/30 12:07:01;;;;;;;3.60;0.88;;;24.30;44.60;;;;;;5029053;28;20965;-70
2023/05/30 12:09:37;;;;;;;2.55;0.95;;;24.50;44.70;;;;;;5028119;28;20029;-70
2023/05/30 12:12:02;;;;;;;2.92;0.80;;;24.50;43.90;;;;;;5029566;28;20053;-70
2023/05/30 12:14:49;;;;;;;1.52;1.05;;;24.40;44.20;;;;;;5026332;28;20033;-70
2023/05/30 12:17:18;;;;;;;1.65;0.95;;;24.40;44.00;;;;;;5024659;28;20033;-69
2023/05/30 12:19:49;;;;;;;2.00;0.90;;;24.50;44.20;;;;;;5031365;28;20079;-71
2023/05/30 12:22:17;;;;;;;2.00;1.03;;;24.60;44.10;;;;;;5029778;28;20030;-70
2023/05/30 12:24:44;;;;;;;1.33;0.75;;;24.70;44.10;;;;;;5033799;28;20040;-70
2023/05/30 12:27:21;;;;;;;0.80;0.80;;;24.70;44.40;;;;;;5029784;28;20091;-71
2023/05/30 12:29:48;;;;;;;1.65;0.88;;;24.80;44.10;;;;;;5033827;28;20044;-72
2023/05/30 12:32:20;;;;;;;1.85;0.82;;;24.90;44.10;;;;;;5028847;28;20083;-72
2023/05/30 12:34:47;;;;;;;1.17;0.95;;;24.90;44.10;;;;;;5027467;28;20026;-73
2023/05/30 12:37:17;;;;;;;0.90;0.77;;;25.00;44.40;;;;;;5024781;28;20367;-73
2023/05/30 12:40:00;;;;;;;1.08;0.98;;;25.20;44.50;;;;;;5032177;28;20532;-73
2023/05/30 12:42:30;;;;;;;2.95;1.00;;;25.40;44.40;;;;;;5027476;28;20030;-73
2023/05/30 12:45:06;;;;;;;1.48;1.08;;;25.40;44.20;;;;;;5025289;28;20124;-72
2023/05/30 12:47:35;;;;;;;1.95;1.08;;;25.50;44.00;;;;;;5031500;28;20033;-73
2023/05/30 12:50:00;;;;;;;4.05;1.13;;;25.40;44.20;;;;;;5030695;28;20507;-73
2023/05/30 12:52:28;;;;;;;2.35;0.90;;;25.40;44.10;;;;;;5026284;28;20026;-73